createdAt,value
2024-02-16T00:00:22.390Z,97.15
2024-02-16T00:02:50.656Z,96.28
2024-02-16T00:05:18.968Z,93.34
2024-02-16T00:07:47.646Z,88.42
2024-02-16T00:10:16.107Z,89.23
2024-02-16T00:12:45.760Z,90.44
2024-02-16T00:15:14.352Z,91.68
2024-02-16T00:17:42.681Z,92.19
2024-02-16T00:20:13.664Z,91.91
2024-02-16T00:22:42.304Z,91.42
2024-02-16T00:25:11.132Z,92.15
2024-02-16T00:27:40.159Z,91.69
2024-02-16T00:30:12.504Z,91.25
2024-02-16T00:32:41.431Z,91.10
2024-02-16T00:35:10.136Z,88.31
2024-02-16T00:37:39.215Z,89.77
2024-02-16T00:40:09.805Z,90.83
2024-02-16T00:42:38.291Z,91.66
2024-02-16T00:45:07.674Z,92.43
2024-02-16T00:47:37.388Z,92.49
2024-02-16T00:50:09.702Z,90.50
2024-02-16T00:52:38.107Z,91.78
2024-02-16T00:55:07.354Z,93.72
2024-02-16T00:57:35.700Z,94.25
2024-02-16T01:00:05.172Z,94.69
2024-02-16T01:02:34.498Z,94.29
2024-02-16T01:05:04.694Z,92.81
2024-02-16T01:07:33.793Z,93.10
2024-02-16T01:10:04.312Z,93.17
2024-02-16T01:12:32.991Z,93.92
2024-02-16T01:15:02.453Z,91.30
2024-02-16T01:17:31.497Z,89.48
2024-02-16T01:19:59.811Z,89.50
2024-02-16T01:22:30.422Z,89.59
2024-02-16T01:24:58.680Z,89.32
2024-02-16T01:27:28.792Z,88.66
2024-02-16T01:29:57.246Z,88.70
2024-02-16T01:32:28.557Z,90.41
2024-02-16T01:34:56.847Z,91.25
2024-02-16T01:37:29.849Z,92.02
2024-02-16T01:39:58.015Z,93.51
2024-02-16T01:42:26.305Z,94.14
2024-02-16T01:44:54.623Z,93.04
2024-02-16T01:47:23.235Z,93.03
2024-02-16T01:49:51.552Z,92.85
2024-02-16T01:52:20.646Z,92.37
2024-02-16T01:54:50.624Z,91.16
2024-02-16T01:57:19.053Z,92.00
2024-02-16T01:59:47.640Z,93.49
2024-02-16T02:02:16.053Z,95.31
2024-02-16T02:04:44.631Z,95.56
2024-02-16T02:07:17.549Z,96.74
2024-02-16T02:09:45.902Z,96.40
2024-02-16T02:12:15.478Z,98.03
2024-02-16T02:14:44.123Z,98.00
2024-02-16T02:17:12.476Z,96.52
2024-02-16T02:19:43.593Z,95.85
2024-02-16T02:22:18.391Z,94.20
2024-02-16T02:24:49.843Z,94.37
2024-02-16T02:27:18.376Z,93.30
2024-02-16T02:29:46.603Z,94.22
2024-02-16T02:32:15.198Z,94.45
2024-02-16T02:34:44.421Z,94.91
2024-02-16T02:37:12.677Z,94.46
2024-02-16T02:39:45.318Z,93.94
2024-02-16T02:42:13.733Z,94.39
2024-02-16T02:44:45.448Z,95.54
2024-02-16T02:47:13.636Z,95.09
2024-02-16T02:49:41.944Z,95.49
2024-02-16T02:52:10.277Z,96.01
2024-02-16T02:54:38.501Z,95.56
2024-02-16T02:57:08.659Z,95.81
2024-02-16T02:59:36.905Z,95.35
2024-02-16T03:02:09.829Z,93.68
2024-02-16T03:04:38.153Z,92.13
2024-02-16T03:07:06.612Z,90.46
2024-02-16T03:09:34.905Z,90.61
2024-02-16T03:12:03.528Z,91.23
2024-02-16T03:14:33.220Z,92.49
2024-02-16T03:17:01.417Z,93.22
2024-02-16T03:19:29.743Z,93.60
2024-02-16T03:21:58.133Z,92.92
2024-02-16T03:24:26.332Z,92.99
2024-02-16T03:26:54.551Z,93.65
2024-02-16T03:29:22.751Z,91.85
2024-02-16T03:31:52.581Z,92.88
2024-02-16T03:34:20.973Z,92.99
2024-02-16T03:36:49.764Z,92.66
2024-02-16T03:39:22.895Z,92.75
2024-02-16T03:41:53.205Z,93.19
2024-02-16T03:44:23.778Z,92.56
2024-02-16T03:46:56.697Z,92.52
2024-02-16T03:49:25.308Z,92.16
2024-02-16T03:51:53.489Z,92.04
2024-02-16T03:54:22.050Z,91.05
2024-02-16T03:56:50.315Z,92.40
2024-02-16T03:59:18.467Z,93.21
2024-02-16T04:01:47.329Z,93.52
2024-02-16T04:04:16.866Z,91.60
2024-02-16T04:06:45.373Z,92.17
2024-02-16T04:09:13.994Z,92.81
2024-02-16T04:11:46.357Z,92.53
2024-02-16T04:14:14.564Z,93.70
2024-02-16T04:16:45.380Z,93.15
2024-02-16T04:19:13.939Z,92.60
2024-02-16T04:21:48.445Z,90.33
2024-02-16T04:24:16.735Z,89.41
2024-02-16T04:26:45.046Z,89.93
2024-02-16T04:29:13.561Z,89.41
2024-02-16T04:31:43.214Z,87.79
2024-02-16T04:34:11.748Z,85.26
2024-02-16T04:36:40.304Z,81.66
2024-02-16T04:39:11.214Z,83.51
2024-02-16T04:41:39.505Z,83.46
2024-02-16T04:44:09.312Z,82.18
2024-02-16T04:46:37.507Z,82.08
2024-02-16T04:49:05.860Z,80.39
2024-02-16T04:51:34.172Z,81.20
2024-02-16T04:54:02.612Z,81.91
2024-02-16T04:56:32.174Z,82.00
2024-02-16T04:59:00.418Z,83.11
2024-02-16T05:01:30.802Z,82.87
2024-02-16T05:04:01.201Z,84.28
2024-02-16T05:06:30.013Z,84.28
2024-02-16T05:08:59.568Z,83.25
2024-02-16T05:11:28.852Z,83.61
2024-02-16T05:13:59.280Z,83.81
2024-02-16T05:16:28.780Z,85.17
2024-02-16T05:18:58.688Z,84.94
2024-02-16T05:21:26.957Z,84.85
2024-02-16T05:23:56.260Z,84.65
2024-02-16T05:26:26.207Z,84.51
2024-02-16T05:28:54.378Z,84.05
2024-02-16T05:31:24.057Z,83.42
2024-02-16T05:33:53.683Z,82.30
2024-02-16T05:36:26.207Z,81.12
2024-02-16T05:38:56.821Z,81.46
2024-02-16T05:41:25.037Z,81.57
2024-02-16T05:43:53.204Z,81.42
2024-02-16T05:46:23.124Z,82.70
2024-02-16T05:48:51.945Z,83.10
2024-02-16T05:51:20.403Z,82.74
2024-02-16T05:53:48.839Z,82.04
2024-02-16T05:56:17.085Z,80.12
2024-02-16T05:58:45.433Z,80.67
2024-02-16T06:01:15.676Z,81.08
2024-02-16T06:03:45.803Z,80.64
2024-02-16T06:06:14.341Z,80.29
2024-02-16T06:08:43.197Z,80.19
2024-02-16T06:11:11.462Z,79.84
2024-02-16T06:13:40.211Z,76.41
2024-02-16T06:16:09.897Z,77.60
2024-02-16T06:18:38.392Z,78.67
2024-02-16T06:21:09.704Z,76.42
2024-02-16T06:23:37.941Z,76.89
2024-02-16T06:26:09.083Z,78.54
2024-02-16T06:28:37.352Z,79.49
2024-02-16T06:31:06.052Z,77.84
2024-02-16T06:33:34.369Z,74.61
2024-02-16T06:36:03.070Z,73.70
2024-02-16T06:38:32.676Z,74.58
2024-02-16T06:41:00.897Z,74.92
2024-02-16T06:43:29.078Z,74.07
2024-02-16T06:45:58.037Z,74.17
2024-02-16T06:48:26.423Z,76.32
2024-02-16T06:50:55.301Z,76.74
2024-02-16T06:53:23.923Z,75.85
2024-02-16T06:55:53.513Z,76.69
2024-02-16T06:58:22.624Z,75.43
2024-02-16T07:00:51.000Z,75.71
2024-02-16T07:03:19.474Z,75.97
2024-02-16T07:05:47.794Z,76.41
2024-02-16T07:08:15.992Z,75.19
2024-02-16T07:10:44.988Z,74.78
2024-02-16T07:13:14.564Z,73.97
2024-02-16T07:15:44.913Z,74.30
2024-02-16T07:18:14.279Z,74.39
2024-02-16T07:20:43.318Z,73.68
2024-02-16T07:23:11.934Z,71.20
2024-02-16T07:25:40.133Z,72.71
2024-02-16T07:28:08.299Z,73.40
2024-02-16T07:30:43.105Z,73.63
2024-02-16T07:33:12.486Z,71.64
2024-02-16T07:35:40.851Z,72.46
2024-02-16T07:38:09.046Z,70.48
2024-02-16T07:40:37.397Z,69.27
2024-02-16T07:43:06.670Z,69.48
2024-02-16T07:45:35.058Z,68.62
2024-02-16T07:48:06.860Z,69.08
2024-02-16T07:50:35.739Z,69.15
2024-02-16T07:53:04.466Z,68.17
2024-02-16T07:55:32.715Z,67.42
2024-02-16T07:58:01.225Z,68.63
2024-02-16T08:00:30.175Z,69.62
2024-02-16T08:02:58.453Z,67.30
2024-02-16T08:05:30.496Z,67.12
2024-02-16T08:07:58.838Z,67.61
2024-02-16T08:10:29.771Z,68.20
2024-02-16T08:12:57.989Z,68.75
2024-02-16T08:15:30.139Z,66.55
2024-02-16T08:17:58.875Z,66.00
2024-02-16T08:20:31.362Z,65.21
2024-02-16T08:23:00.525Z,64.79
2024-02-16T08:25:31.513Z,63.03
2024-02-16T08:27:59.766Z,62.24
2024-02-16T08:30:30.190Z,61.24
2024-02-16T08:32:59.634Z,60.72
2024-02-16T08:35:31.464Z,59.76
2024-02-16T08:37:59.758Z,59.29
2024-02-16T08:40:30.171Z,57.90
2024-02-16T08:42:59.785Z,56.59
2024-02-16T08:45:29.703Z,55.48
2024-02-16T08:47:58.907Z,55.20
2024-02-16T08:50:31.603Z,54.67
2024-02-16T08:52:59.897Z,55.10
2024-02-16T08:55:28.193Z,56.01
2024-02-16T08:57:56.422Z,56.79
2024-02-16T09:00:28.127Z,57.35
2024-02-16T09:02:56.512Z,58.15
2024-02-16T09:05:25.093Z,58.14
2024-02-16T09:07:54.675Z,59.29
2024-02-16T09:10:23.538Z,59.27
2024-02-16T09:12:52.987Z,59.15
2024-02-16T09:15:21.356Z,57.71
2024-02-16T09:17:49.612Z,57.99
2024-02-16T09:20:24.104Z,56.63
2024-02-16T09:22:52.417Z,56.50
2024-02-16T09:25:23.130Z,56.72
2024-02-16T09:27:51.552Z,56.01
2024-02-16T09:30:22.809Z,54.94
2024-02-16T09:32:51.171Z,54.63
2024-02-16T09:35:19.738Z,54.01
2024-02-16T09:37:48.030Z,53.96
2024-02-16T09:40:16.636Z,52.91
2024-02-16T09:42:51.952Z,53.03
2024-02-16T09:45:20.836Z,52.49
2024-02-16T09:47:57.059Z,52.43
2024-02-16T09:50:30.017Z,51.87
2024-02-16T09:53:00.702Z,51.99
2024-02-16T09:55:34.695Z,51.01
2024-02-16T09:58:06.146Z,50.38
2024-02-16T10:00:34.378Z,49.69
2024-02-16T10:03:05.060Z,49.39
2024-02-16T10:05:33.388Z,48.97
2024-02-16T10:08:14.564Z,48.90
2024-02-16T10:10:42.848Z,49.05
2024-02-16T10:13:12.742Z,49.28
2024-02-16T10:15:41.679Z,49.11
2024-02-16T10:18:10.279Z,48.76
2024-02-16T10:20:42.937Z,48.56
2024-02-16T10:23:12.749Z,47.55
2024-02-16T10:25:42.688Z,47.96
2024-02-16T10:28:15.104Z,47.63
2024-02-16T10:30:45.691Z,47.76
2024-02-16T10:33:14.877Z,47.86
2024-02-16T10:35:44.400Z,48.17
2024-02-16T10:38:13.292Z,48.15
2024-02-16T10:40:43.307Z,48.05
2024-02-16T10:43:16.141Z,47.96
2024-02-16T10:45:45.396Z,48.52
2024-02-16T10:48:14.209Z,48.72
2024-02-16T10:50:43.547Z,48.53
2024-02-16T10:53:19.608Z,47.90
2024-02-16T10:55:48.583Z,48.67
2024-02-16T10:58:20.162Z,48.67
2024-02-16T11:00:53.957Z,48.83
2024-02-16T11:03:26.851Z,49.82
2024-02-16T11:05:56.436Z,49.88
2024-02-16T11:08:29.438Z,50.27
2024-02-16T11:11:00.347Z,51.21
2024-02-16T11:13:34.978Z,51.28
2024-02-16T11:16:05.766Z,53.20
2024-02-16T11:18:41.997Z,52.68
2024-02-16T11:21:14.716Z,51.98
2024-02-16T11:23:44.410Z,51.93
2024-02-16T11:26:14.641Z,52.16
2024-02-16T11:28:44.940Z,52.77
2024-02-16T11:31:13.703Z,53.27
2024-02-16T11:33:47.029Z,53.43
2024-02-16T11:36:15.917Z,53.54
2024-02-16T11:38:44.678Z,54.85
2024-02-16T11:41:12.975Z,55.08
2024-02-16T11:43:43.948Z,55.46
2024-02-16T11:46:15.883Z,55.40
2024-02-16T11:48:44.385Z,55.27
2024-02-16T11:51:12.989Z,54.29
2024-02-16T11:53:42.222Z,54.80
2024-02-16T11:56:10.467Z,52.73
2024-02-16T11:58:39.230Z,53.10
2024-02-16T12:01:13.704Z,52.43
2024-02-16T12:03:44.359Z,52.02
2024-02-16T12:06:23.696Z,52.67
2024-02-16T12:08:54.624Z,52.53
2024-02-16T12:11:24.174Z,51.51
2024-02-16T12:13:52.544Z,50.57
2024-02-16T12:16:23.156Z,49.80
2024-02-16T12:18:51.599Z,49.76
2024-02-16T12:21:21.919Z,49.64
2024-02-16T12:23:50.294Z,48.76
2024-02-16T12:26:18.747Z,48.93
2024-02-16T12:28:47.022Z,48.77
2024-02-16T12:31:23.349Z,48.34
2024-02-16T12:33:51.926Z,47.72
2024-02-16T12:36:20.594Z,47.82
2024-02-16T12:38:48.947Z,47.94
2024-02-16T12:41:17.237Z,48.33
2024-02-16T12:43:45.476Z,48.03
2024-02-16T12:46:13.731Z,48.31
2024-02-16T12:48:45.567Z,47.76
2024-02-16T12:51:15.293Z,47.74
2024-02-16T12:53:44.793Z,47.58
2024-02-16T12:56:13.140Z,47.59
2024-02-16T12:58:43.413Z,47.93
2024-02-16T13:01:19.956Z,48.26
2024-02-16T13:03:55.423Z,48.27
2024-02-16T13:06:26.888Z,48.26
2024-02-16T13:08:57.712Z,48.19
2024-02-16T13:11:26.224Z,48.15
2024-02-16T13:13:54.547Z,48.00
2024-02-16T13:16:23.828Z,48.46
2024-02-16T13:19:02.111Z,48.43
2024-02-16T13:21:30.438Z,48.79
2024-02-16T13:23:59.228Z,48.73
2024-02-16T13:26:29.123Z,49.11
2024-02-16T13:28:58.377Z,48.92
2024-02-16T13:31:29.195Z,49.46
2024-02-16T13:33:57.439Z,49.47
2024-02-16T13:36:27.097Z,49.74
2024-02-16T13:38:55.354Z,49.73
2024-02-16T13:41:23.970Z,49.82
2024-02-16T13:43:53.655Z,49.42
2024-02-16T13:46:27.615Z,49.71
2024-02-16T13:49:00.396Z,49.19
2024-02-16T13:51:30.416Z,49.04
2024-02-16T13:53:58.909Z,48.24
2024-02-16T13:56:27.167Z,48.21
2024-02-16T13:58:55.338Z,48.13
2024-02-16T14:01:24.116Z,48.29
2024-02-16T14:03:53.393Z,48.41
2024-02-16T14:06:21.818Z,48.41
2024-02-16T14:08:53.823Z,48.59
2024-02-16T14:11:22.584Z,48.55
2024-02-16T14:13:53.500Z,49.24
2024-02-16T14:16:21.940Z,49.81
2024-02-16T14:18:52.458Z,48.60
2024-02-16T14:21:23.557Z,48.88
2024-02-16T14:23:54.285Z,49.03
2024-02-16T14:26:22.599Z,48.41
2024-02-16T14:28:50.746Z,48.17
2024-02-16T14:31:21.271Z,48.76
2024-02-16T14:33:52.189Z,48.68
2024-02-16T14:36:20.635Z,48.73
2024-02-16T14:38:50.905Z,48.80
2024-02-16T14:41:24.019Z,49.16
2024-02-16T14:43:52.278Z,49.10
2024-02-16T14:46:27.862Z,49.29
2024-02-16T14:48:56.403Z,49.65
2024-02-16T14:51:26.020Z,50.47
2024-02-16T14:53:54.366Z,49.98
2024-02-16T14:56:24.869Z,50.59
2024-02-16T14:58:53.215Z,50.52
2024-02-16T15:01:21.583Z,50.77
2024-02-16T15:03:51.146Z,50.95
2024-02-16T15:06:19.593Z,50.88
2024-02-16T15:08:47.885Z,51.28
2024-02-16T15:11:17.525Z,51.42
2024-02-16T15:13:50.307Z,52.01
2024-02-16T15:16:22.209Z,52.27
2024-02-16T15:18:50.504Z,52.03
2024-02-16T15:21:22.031Z,51.95
2024-02-16T15:23:50.352Z,51.91
2024-02-16T15:26:18.629Z,52.42
2024-02-16T15:28:49.120Z,53.01
2024-02-16T15:31:17.331Z,53.29
2024-02-16T15:33:45.765Z,53.53
2024-02-16T15:36:15.067Z,53.95
2024-02-16T15:38:43.419Z,54.12
2024-02-16T15:41:11.718Z,54.00
2024-02-16T15:43:39.917Z,54.16
2024-02-16T15:46:09.435Z,54.58
2024-02-16T15:48:37.708Z,53.55
2024-02-16T15:51:08.584Z,54.48
2024-02-16T15:53:36.866Z,55.45
2024-02-16T15:56:06.959Z,55.97
2024-02-16T15:58:39.910Z,56.25
2024-02-16T16:01:09.507Z,56.62
2024-02-16T16:03:37.773Z,56.82
2024-02-16T16:06:06.967Z,57.22
2024-02-16T16:08:35.374Z,57.08
2024-02-16T16:11:04.202Z,56.82
2024-02-16T16:13:32.765Z,56.67
2024-02-16T16:16:01.262Z,57.26
2024-02-16T16:18:34.668Z,57.19
2024-02-16T16:21:03.994Z,56.34
2024-02-16T16:23:39.003Z,56.60
2024-02-16T16:26:07.275Z,58.25
2024-02-16T16:28:40.988Z,59.40
2024-02-16T16:31:09.847Z,60.21
2024-02-16T16:33:42.014Z,60.38
2024-02-16T16:36:19.165Z,60.92
2024-02-16T16:38:47.446Z,61.34
2024-02-16T16:41:20.422Z,61.90
2024-02-16T16:43:48.708Z,62.45
2024-02-16T16:46:21.078Z,60.49
2024-02-16T16:48:51.159Z,61.22
2024-02-16T16:51:21.269Z,61.74
2024-02-16T16:53:49.438Z,60.94
2024-02-16T16:56:20.761Z,61.85
2024-02-16T16:58:48.939Z,62.06
2024-02-16T17:01:20.956Z,62.45
2024-02-16T17:03:51.023Z,63.57
2024-02-16T17:06:21.245Z,62.62
2024-02-16T17:08:49.815Z,61.08
2024-02-16T17:11:20.948Z,61.58
2024-02-16T17:13:50.291Z,63.06
2024-02-16T17:16:21.533Z,63.66
2024-02-16T17:18:51.218Z,63.31
2024-02-16T17:21:21.099Z,62.89
2024-02-16T17:23:50.701Z,63.07
2024-02-16T17:26:21.078Z,63.00
2024-02-16T17:28:49.208Z,64.06
2024-02-16T17:31:21.153Z,63.02
2024-02-16T17:33:51.036Z,63.36
2024-02-16T17:36:21.383Z,64.01
2024-02-16T17:38:49.600Z,64.25
2024-02-16T17:41:24.182Z,65.32
2024-02-16T17:43:52.368Z,65.23
2024-02-16T17:46:21.262Z,65.37
2024-02-16T17:48:50.942Z,65.63
2024-02-16T17:51:21.223Z,66.33
2024-02-16T17:53:49.455Z,66.91
2024-02-16T17:56:20.977Z,67.54
2024-02-16T17:58:49.207Z,67.73
2024-02-16T18:01:21.019Z,68.37
2024-02-16T18:03:50.732Z,68.78
2024-02-16T18:06:19.213Z,69.02
2024-02-16T18:08:47.522Z,69.15
2024-02-16T18:11:16.100Z,69.67
2024-02-16T18:13:44.371Z,69.56
2024-02-16T18:16:12.542Z,69.52
2024-02-16T18:18:41.004Z,69.69
2024-02-16T18:21:10.890Z,69.69
2024-02-16T18:23:43.058Z,69.76
2024-02-16T18:26:11.318Z,69.94
2024-02-16T18:28:45.499Z,70.39
2024-02-16T18:31:14.670Z,70.64
2024-02-16T18:33:43.404Z,70.49
2024-02-16T18:36:13.136Z,70.36
2024-02-16T18:38:44.190Z,69.30
2024-02-16T18:41:12.597Z,70.01
2024-02-16T18:43:40.806Z,70.28
2024-02-16T18:46:08.988Z,70.83
2024-02-16T18:48:38.950Z,71.47
2024-02-16T18:51:07.743Z,71.84
2024-02-16T18:53:37.389Z,72.31
2024-02-16T18:56:06.086Z,73.42
2024-02-16T18:58:38.713Z,74.38
2024-02-16T19:01:07.174Z,76.02
2024-02-16T19:03:39.681Z,77.41
2024-02-16T19:06:08.965Z,78.13
2024-02-16T19:08:42.936Z,79.16
2024-02-16T19:11:11.342Z,80.62
2024-02-16T19:13:41.543Z,81.77
2024-02-16T19:16:09.857Z,83.59
2024-02-16T19:18:42.219Z,85.33
2024-02-16T19:21:10.620Z,87.29
2024-02-16T19:23:39.049Z,88.91
2024-02-16T19:26:10.399Z,90.69
2024-02-16T19:28:41.692Z,92.13
2024-02-16T19:31:10.489Z,93.85
2024-02-16T19:33:39.308Z,95.42
2024-02-16T19:36:09.994Z,96.54
2024-02-16T19:38:39.238Z,97.66
2024-02-16T19:41:08.815Z,98.67
2024-02-16T19:43:38.638Z,100.00
2024-02-16T19:46:07.829Z,100.00
2024-02-16T19:48:40.910Z,100.00
2024-02-16T19:51:09.949Z,100.00
2024-02-16T19:53:38.220Z,100.00
2024-02-16T19:56:08.442Z,100.00
2024-02-16T19:58:36.925Z,100.00
2024-02-16T20:01:05.349Z,100.00
2024-02-16T20:03:35.196Z,100.00
2024-02-16T20:06:05.564Z,100.00
2024-02-16T20:08:35.962Z,100.00
2024-02-16T20:11:04.233Z,100.00
2024-02-16T20:13:35.532Z,100.00
2024-02-16T20:16:05.632Z,99.04
2024-02-16T20:18:34.409Z,98.69
2024-02-16T20:21:04.100Z,97.85
2024-02-16T20:23:32.313Z,96.77
2024-02-16T20:26:00.531Z,97.24
2024-02-16T20:28:28.738Z,98.66
2024-02-16T20:31:05.428Z,100.00
2024-02-16T20:33:34.050Z,100.00
2024-02-16T20:36:02.375Z,100.00
2024-02-16T20:38:30.587Z,100.00
2024-02-16T20:40:59.526Z,100.00
2024-02-16T20:43:28.162Z,100.00
2024-02-16T20:45:57.727Z,100.00
2024-02-16T20:48:27.005Z,100.00
2024-02-16T20:50:55.613Z,100.00
2024-02-16T20:53:23.938Z,100.00
2024-02-16T20:55:53.471Z,100.00
2024-02-16T20:58:21.634Z,100.00
2024-02-16T21:00:50.020Z,100.00
2024-02-16T21:03:19.880Z,100.00
2024-02-16T21:05:48.656Z,100.00
2024-02-16T21:08:16.866Z,100.00
2024-02-16T21:10:46.975Z,100.00
2024-02-16T21:13:17.623Z,100.00
2024-02-16T21:15:46.997Z,100.00
2024-02-16T21:18:15.662Z,100.00
2024-02-16T21:20:49.855Z,100.00
2024-02-16T21:23:18.086Z,100.00
2024-02-16T21:25:46.691Z,100.00
2024-02-16T21:28:16.655Z,100.00
2024-02-16T21:30:45.352Z,100.00
2024-02-16T21:33:14.971Z,100.00
2024-02-16T21:35:45.467Z,100.00
2024-02-16T21:38:14.002Z,100.00
2024-02-16T21:40:45.284Z,100.00
2024-02-16T21:43:13.557Z,100.00
2024-02-16T21:45:42.242Z,100.00
2024-02-16T21:48:14.464Z,100.00
2024-02-16T21:50:49.092Z,100.00
2024-02-16T21:53:17.271Z,100.00
2024-02-16T21:55:46.731Z,100.00
2024-02-16T21:58:15.223Z,100.00
2024-02-16T22:00:43.597Z,100.00
2024-02-16T22:03:11.839Z,100.00
2024-02-16T22:05:40.277Z,100.00
2024-02-16T22:08:13.163Z,100.00
2024-02-16T22:10:41.419Z,100.00
2024-02-16T22:13:09.853Z,100.00
2024-02-16T22:15:39.945Z,100.00
2024-02-16T22:18:08.956Z,100.00
2024-02-16T22:20:37.191Z,100.00
2024-02-16T22:23:05.813Z,100.00
2024-02-16T22:25:38.026Z,100.00
2024-02-16T22:28:07.569Z,100.00
2024-02-16T22:30:35.977Z,100.00
2024-02-16T22:33:05.042Z,100.00
2024-02-16T22:35:32.451Z,100.00
2024-02-16T22:38:00.629Z,100.00
2024-02-16T22:40:28.832Z,100.00
2024-02-16T22:42:58.525Z,100.00
2024-02-16T22:45:26.760Z,100.00
2024-02-16T22:47:54.976Z,100.00
2024-02-16T22:50:23.234Z,100.00
2024-02-16T22:52:54.056Z,100.00
2024-02-16T22:55:22.540Z,100.00
2024-02-16T22:57:50.827Z,100.00
2024-02-16T23:00:26.070Z,100.00
2024-02-16T23:02:56.387Z,100.00
2024-02-16T23:05:26.030Z,100.00
2024-02-16T23:07:55.314Z,100.00
2024-02-16T23:10:23.765Z,100.00
2024-02-16T23:12:53.730Z,100.00
2024-02-16T23:15:24.693Z,100.00
2024-02-16T23:17:54.522Z,100.00
2024-02-16T23:20:23.766Z,100.00
2024-02-16T23:23:12.040Z,100.00
2024-02-16T23:25:43.576Z,100.00
2024-02-16T23:28:14.502Z,100.00
2024-02-16T23:30:45.572Z,100.00
2024-02-16T23:33:14.818Z,100.00
2024-02-16T23:35:43.293Z,100.00
2024-02-16T23:38:12.642Z,100.00
2024-02-16T23:40:42.006Z,100.00
2024-02-16T23:43:13.094Z,100.00
2024-02-16T23:45:41.456Z,100.00
2024-02-16T23:48:11.517Z,100.00
2024-02-16T23:50:40.229Z,100.00
2024-02-16T23:53:08.382Z,100.00
2024-02-16T23:55:36.630Z,100.00
2024-02-16T23:58:04.921Z,100.00
